createdAt,value
2023-03-02T00:00:16.498Z,0.31
2023-03-02T00:01:19.332Z,0.43
2023-03-02T00:02:22.356Z,0.56
2023-03-02T00:03:25.442Z,0.55
2023-03-02T00:04:32.907Z,0.33
2023-03-02T00:05:35.473Z,0.32
2023-03-02T00:06:38.746Z,0.22
2023-03-02T00:07:40.305Z,0.26
2023-03-02T00:08:44.516Z,0.26
2023-03-02T00:09:46.241Z,0.01
2023-03-02T00:10:48.753Z,-0.02
2023-03-02T00:11:51.380Z,0.12
2023-03-02T00:12:54.110Z,0.12
2023-03-02T00:13:55.634Z,-0.25
2023-03-02T00:14:58.169Z,-0.19
2023-03-02T00:15:59.792Z,-0.13
2023-03-02T00:17:03.312Z,-0.07
2023-03-02T00:18:05.019Z,0.05
2023-03-02T00:19:07.531Z,-0.08
2023-03-02T00:20:10.347Z,-0.07
2023-03-02T00:21:12.957Z,0.17
2023-03-02T00:22:14.563Z,0.23
2023-03-02T00:23:17.389Z,0.29
2023-03-02T00:24:20.360Z,0.33
2023-03-02T00:25:22.899Z,0.25
2023-03-02T00:26:24.391Z,-0.26
2023-03-02T00:27:29.908Z,-0.22
2023-03-02T00:28:31.482Z,0.00
2023-03-02T00:29:33.939Z,0.15
2023-03-02T00:30:35.486Z,0.18
2023-03-02T00:31:38.899Z,0.28
2023-03-02T00:32:40.634Z,0.17
2023-03-02T00:33:43.625Z,0.20
2023-03-02T00:34:45.109Z,-0.29
2023-03-02T00:35:47.944Z,-0.35
2023-03-02T00:36:49.672Z,-0.22
2023-03-02T00:37:52.201Z,-0.07
2023-03-02T00:38:53.745Z,-0.10
2023-03-02T00:39:57.585Z,0.02
2023-03-02T00:40:59.387Z,-0.25
2023-03-02T00:42:03.168Z,-0.34
2023-03-02T00:43:04.677Z,-0.83
2023-03-02T00:44:07.164Z,-1.32
2023-03-02T00:45:09.774Z,-1.96
2023-03-02T00:46:13.664Z,-2.01
2023-03-02T00:47:15.208Z,-1.48
2023-03-02T00:48:17.680Z,-1.09
2023-03-02T00:49:19.300Z,-1.42
2023-03-02T00:50:21.910Z,-1.39
2023-03-02T00:51:23.507Z,-1.39
2023-03-02T00:52:26.371Z,-1.69
2023-03-02T00:53:27.858Z,-1.29
2023-03-02T00:54:30.353Z,-0.99
2023-03-02T00:55:33.153Z,-0.99
2023-03-02T00:56:35.930Z,-1.46
2023-03-02T00:57:37.401Z,-1.90
2023-03-02T00:58:40.519Z,-1.99
2023-03-02T00:59:42.065Z,-2.14
2023-03-02T01:00:44.611Z,-2.19
2023-03-02T01:01:57.703Z,-2.20
2023-03-02T01:03:00.359Z,-2.12
2023-03-02T01:04:01.883Z,-1.72
2023-03-02T01:05:04.500Z,-1.63
2023-03-02T01:06:13.322Z,-1.56
2023-03-02T01:07:17.967Z,-1.65
2023-03-02T01:08:19.519Z,-1.56
2023-03-02T01:09:21.982Z,-1.43
2023-03-02T01:10:23.530Z,-1.13
2023-03-02T01:11:27.355Z,-0.95
2023-03-02T01:12:28.923Z,-1.34
2023-03-02T01:13:31.347Z,-1.52
2023-03-02T01:14:32.919Z,-1.69
2023-03-02T01:15:35.646Z,-1.36
2023-03-02T01:16:37.528Z,-1.09
2023-03-02T01:17:41.394Z,-1.38
2023-03-02T01:18:43.006Z,-1.67
2023-03-02T01:19:45.771Z,-1.47
2023-03-02T01:20:47.366Z,-1.24
2023-03-02T01:21:49.899Z,-1.80
2023-03-02T01:22:51.435Z,-1.99
2023-03-02T01:23:53.886Z,-2.18
2023-03-02T01:24:55.432Z,-2.07
2023-03-02T01:25:57.977Z,-1.86
2023-03-02T01:27:00.881Z,-2.37
2023-03-02T01:28:03.314Z,-2.28
2023-03-02T01:29:04.874Z,-2.18
2023-03-02T01:30:08.645Z,-2.19
2023-03-02T01:31:10.291Z,-1.79
2023-03-02T01:32:12.794Z,-1.39
2023-03-02T01:33:14.427Z,-1.20
2023-03-02T01:34:17.176Z,-1.04
2023-03-02T01:35:18.967Z,-1.50
2023-03-02T01:36:22.188Z,-1.50
2023-03-02T01:37:23.772Z,-1.23
2023-03-02T01:38:26.339Z,-1.11
2023-03-02T01:39:27.864Z,-0.94
2023-03-02T01:40:30.478Z,-0.88
2023-03-02T01:41:32.408Z,-0.80
2023-03-02T01:42:39.258Z,-0.78
2023-03-02T01:43:40.877Z,-0.81
2023-03-02T01:44:45.566Z,-0.91
2023-03-02T01:45:51.943Z,-0.66
2023-03-02T01:46:54.646Z,-0.74
2023-03-02T01:47:56.186Z,-0.65
2023-03-02T01:49:01.595Z,-1.08
2023-03-02T01:50:06.542Z,-1.11
2023-03-02T01:51:15.822Z,-1.49
2023-03-02T01:52:18.208Z,-1.36
2023-03-02T01:53:21.694Z,-1.74
2023-03-02T01:54:23.568Z,-1.64
2023-03-02T01:55:30.243Z,-1.62
2023-03-02T01:56:36.438Z,-1.74
2023-03-02T01:57:45.615Z,-2.14
2023-03-02T01:58:51.208Z,-1.95
2023-03-02T01:59:59.674Z,-1.74
2023-03-02T02:01:01.385Z,-1.84
2023-03-02T02:02:07.548Z,-2.12
2023-03-02T02:03:14.361Z,-1.78
2023-03-02T02:04:17.544Z,-1.56
2023-03-02T02:05:25.415Z,-1.31
2023-03-02T02:06:33.863Z,-1.04
2023-03-02T02:07:36.032Z,-0.89
2023-03-02T02:08:39.936Z,-0.99
2023-03-02T02:09:44.353Z,-0.87
2023-03-02T02:10:46.821Z,-1.04
2023-03-02T02:11:48.726Z,-1.11
2023-03-02T02:12:52.662Z,-1.28
2023-03-02T02:13:57.476Z,-1.52
2023-03-02T02:15:01.341Z,-1.74
2023-03-02T02:16:03.701Z,-1.76
2023-03-02T02:17:06.867Z,-2.03
2023-03-02T02:18:08.975Z,-1.72
2023-03-02T02:19:19.656Z,-1.78
2023-03-02T02:20:28.849Z,-1.71
2023-03-02T02:22:55.153Z,-1.93
2023-03-02T02:24:10.333Z,-2.01
2023-03-02T02:25:22.435Z,-1.96
2023-03-02T02:26:28.379Z,-2.44
2023-03-02T02:27:34.069Z,-2.26
2023-03-02T02:28:40.927Z,-2.17
2023-03-02T02:29:47.022Z,-2.29
2023-03-02T02:30:52.912Z,-2.13
2023-03-02T02:31:57.623Z,-2.29
2023-03-02T02:33:01.575Z,-2.53
2023-03-02T02:34:10.340Z,-2.54
2023-03-02T02:35:17.462Z,-2.21
2023-03-02T02:36:22.901Z,-1.77
2023-03-02T02:37:32.137Z,-1.54
2023-03-02T02:38:34.973Z,-1.60
2023-03-02T02:39:42.626Z,-1.89
2023-03-02T02:40:48.491Z,-1.62
2023-03-02T02:41:56.042Z,-2.07
2023-03-02T02:42:57.590Z,-2.01
2023-03-02T02:44:00.351Z,-2.10
2023-03-02T02:45:04.717Z,-2.21
2023-03-02T02:46:07.242Z,-2.45
2023-03-02T02:47:16.287Z,-2.67
2023-03-02T02:48:24.778Z,-2.31
2023-03-02T02:49:30.673Z,-2.26
2023-03-02T02:50:38.037Z,-1.93
2023-03-02T02:51:39.873Z,-2.20
2023-03-02T02:52:42.484Z,-2.10
2023-03-02T02:53:49.967Z,-1.76
2023-03-02T02:54:55.194Z,-1.85
2023-03-02T02:58:40.521Z,-2.12
2023-03-02T02:59:47.289Z,-2.35
2023-03-02T03:00:56.747Z,-2.51
2023-03-02T03:02:00.645Z,-2.93
2023-03-02T03:03:08.636Z,-2.65
2023-03-02T03:04:15.853Z,-2.56
2023-03-02T03:05:18.053Z,-2.39
2023-03-02T03:06:25.697Z,-2.62
2023-03-02T03:07:27.227Z,-2.47
2023-03-02T03:08:53.464Z,-2.37
2023-03-02T03:10:02.196Z,-2.75
2023-03-02T03:11:06.962Z,-2.29
2023-03-02T03:12:15.284Z,-1.96
2023-03-02T03:13:18.505Z,-1.75
2023-03-02T03:14:23.551Z,-1.55
2023-03-02T03:16:59.092Z,-1.49
2023-03-02T03:18:04.152Z,-1.61
2023-03-02T03:19:12.760Z,-1.36
2023-03-02T03:20:16.706Z,-1.28
2023-03-02T03:21:19.346Z,-1.22
2023-03-02T03:22:21.021Z,-1.17
2023-03-02T03:23:23.546Z,-1.42
2023-03-02T03:24:26.258Z,-1.33
2023-03-02T03:25:29.825Z,-1.25
2023-03-02T03:26:31.789Z,-1.27
2023-03-02T03:27:34.380Z,-1.18
2023-03-02T03:28:37.249Z,-1.04
2023-03-02T03:29:41.941Z,-0.95
2023-03-02T03:30:43.922Z,-0.89
2023-03-02T03:31:46.603Z,-0.88
2023-03-02T03:32:48.153Z,-0.95
2023-03-02T03:33:50.817Z,-1.39
2023-03-02T03:34:53.279Z,-2.15
2023-03-02T03:35:55.025Z,-1.92
2023-03-02T03:37:01.675Z,-1.66
2023-03-02T03:38:03.801Z,-1.74
2023-03-02T03:39:07.141Z,-1.81
2023-03-02T03:40:10.507Z,-2.35
2023-03-02T03:41:12.992Z,-2.53
2023-03-02T03:42:15.349Z,-3.02
2023-03-02T03:43:17.879Z,-2.93
2023-03-02T03:44:21.173Z,-2.86
2023-03-02T03:45:23.994Z,-2.89
2023-03-02T03:46:25.684Z,-2.76
2023-03-02T03:47:28.181Z,-2.60
2023-03-02T03:48:29.670Z,-2.42
2023-03-02T03:49:32.221Z,-2.48
2023-03-02T03:50:34.052Z,-2.75
2023-03-02T03:51:36.563Z,-2.54
2023-03-02T03:52:38.063Z,-2.80
2023-03-02T03:53:40.759Z,-2.73
2023-03-02T03:54:42.238Z,-2.26
2023-03-02T03:55:44.696Z,-1.95
2023-03-02T03:56:48.375Z,-1.74
2023-03-02T03:57:50.902Z,-1.67
2023-03-02T03:59:06.408Z,-1.58
2023-03-02T04:00:14.988Z,-1.66
2023-03-02T04:01:16.535Z,-1.58
2023-03-02T04:02:19.134Z,-1.49
2023-03-02T04:03:21.233Z,-1.57
2023-03-02T04:04:27.056Z,-1.52
2023-03-02T04:05:31.451Z,-1.57
2023-03-02T04:06:34.504Z,-1.59
2023-03-02T04:07:37.586Z,-1.70
2023-03-02T04:08:40.021Z,-1.60
2023-03-02T04:09:42.023Z,-1.46
2023-03-02T04:10:44.780Z,-1.49
2023-03-02T04:11:48.733Z,-1.43
2023-03-02T04:12:51.275Z,-1.45
2023-03-02T04:13:52.771Z,-1.34
2023-03-02T04:14:55.214Z,-1.33
2023-03-02T04:15:58.105Z,-1.28
2023-03-02T04:17:00.609Z,-1.25
2023-03-02T04:18:02.804Z,-1.22
2023-03-02T04:19:09.485Z,-1.58
2023-03-02T04:20:16.020Z,-2.00
2023-03-02T04:21:18.716Z,-2.12
2023-03-02T04:22:20.583Z,-1.89
2023-03-02T04:23:23.047Z,-1.70
2023-03-02T04:24:25.031Z,-1.50
2023-03-02T04:25:30.284Z,-1.38
2023-03-02T04:26:38.492Z,-1.68
2023-03-02T04:27:41.246Z,-2.26
2023-03-02T04:28:42.996Z,-2.72
2023-03-02T04:29:46.273Z,-2.64
2023-03-02T04:30:47.859Z,-2.59
2023-03-02T04:31:52.155Z,-2.63
2023-03-02T04:32:54.853Z,-2.34
2023-03-02T04:33:57.372Z,-2.19
2023-03-02T04:34:59.404Z,-2.22
2023-03-02T04:36:02.328Z,-2.29
2023-03-02T04:37:04.161Z,-2.46
2023-03-02T04:38:06.893Z,-2.87
2023-03-02T04:39:09.040Z,-2.84
2023-03-02T04:40:14.031Z,-2.52
2023-03-02T04:41:16.153Z,-2.51
2023-03-02T04:42:18.813Z,-3.00
2023-03-02T04:43:20.386Z,-3.02
2023-03-02T04:44:23.102Z,-2.94
2023-03-02T04:45:24.633Z,-2.95
2023-03-02T04:46:28.944Z,-2.98
2023-03-02T04:47:32.026Z,-3.30
2023-03-02T04:48:34.572Z,-3.37
2023-03-02T04:49:36.348Z,-3.47
2023-03-02T04:50:38.826Z,-3.29
2023-03-02T04:51:42.386Z,-2.95
2023-03-02T04:52:44.865Z,-2.56
2023-03-02T04:53:46.409Z,-2.27
2023-03-02T04:54:49.047Z,-2.12
2023-03-02T04:55:50.631Z,-1.93
2023-03-02T04:56:53.902Z,-1.74
2023-03-02T04:57:55.461Z,-1.91
2023-03-02T04:58:58.127Z,-1.85
2023-03-02T04:59:59.631Z,-1.78
2023-03-02T05:01:02.352Z,-1.87
2023-03-02T05:02:04.016Z,-1.99
2023-03-02T05:03:08.473Z,-1.88
2023-03-02T05:04:10.298Z,-1.84
2023-03-02T05:05:17.237Z,-2.20
2023-03-02T05:06:19.203Z,-2.19
2023-03-02T05:07:21.677Z,-2.30
2023-03-02T05:08:24.248Z,-2.36
2023-03-02T05:09:30.277Z,-2.62
2023-03-02T05:10:31.932Z,-2.66
2023-03-02T05:11:35.023Z,-3.03
2023-03-02T05:12:54.839Z,-3.28
2023-03-02T05:14:00.554Z,-3.27
2023-03-02T05:15:02.073Z,-3.54
2023-03-02T05:16:05.357Z,-3.23
2023-03-02T05:17:07.041Z,-3.40
2023-03-02T05:18:12.692Z,-3.23
2023-03-02T05:19:14.252Z,-3.26
2023-03-02T05:20:17.344Z,-2.95
2023-03-02T05:21:19.364Z,-2.68
2023-03-02T05:22:21.958Z,-2.33
2023-03-02T05:23:27.551Z,-2.12
2023-03-02T05:24:30.509Z,-2.19
2023-03-02T05:25:35.698Z,-2.44
2023-03-02T05:26:39.153Z,-2.21
2023-03-02T05:27:40.966Z,-2.01
2023-03-02T05:28:44.154Z,-2.01
2023-03-02T05:29:45.741Z,-2.18
2023-03-02T05:30:48.658Z,-1.98
2023-03-02T05:31:50.640Z,-2.16
2023-03-02T05:32:53.781Z,-2.13
2023-03-02T05:33:56.976Z,-2.10
2023-03-02T05:34:59.507Z,-2.20
2023-03-02T05:36:01.366Z,-2.19
2023-03-02T05:37:03.921Z,-2.12
2023-03-02T05:38:05.573Z,-1.91
2023-03-02T05:39:09.388Z,-1.85
2023-03-02T05:40:13.197Z,-1.71
2023-03-02T05:41:16.924Z,-1.67
2023-03-02T05:42:19.339Z,-1.88
2023-03-02T05:43:22.782Z,-1.95
2023-03-02T05:44:25.259Z,-1.97
2023-03-02T05:45:29.480Z,-1.81
2023-03-02T05:46:32.372Z,-1.86
2023-03-02T05:47:34.125Z,-2.06
2023-03-02T05:48:37.117Z,-1.94
2023-03-02T05:49:39.963Z,-2.09
2023-03-02T05:50:43.008Z,-2.38
2023-03-02T05:51:44.529Z,-2.28
2023-03-02T05:52:47.555Z,-2.47
2023-03-02T05:53:49.398Z,-2.43
2023-03-02T05:54:51.853Z,-2.31
2023-03-02T05:55:54.286Z,-2.39
2023-03-02T05:56:56.756Z,-2.14
2023-03-02T05:57:58.264Z,-2.06
2023-03-02T05:59:01.012Z,-1.90
2023-03-02T06:00:02.842Z,-2.15
2023-03-02T06:01:13.166Z,-2.08
2023-03-02T06:02:16.816Z,-1.89
2023-03-02T06:03:19.781Z,-1.76
2023-03-02T06:04:21.558Z,-1.72
2023-03-02T06:05:29.149Z,-1.65
2023-03-02T06:06:33.559Z,-1.65
2023-03-02T06:07:37.073Z,-1.63
2023-03-02T06:08:41.285Z,-1.69
2023-03-02T06:09:43.820Z,-1.86
2023-03-02T06:10:45.834Z,-1.89
2023-03-02T06:11:48.349Z,-1.99
2023-03-02T06:12:50.278Z,-1.99
2023-03-02T06:13:53.060Z,-2.06
2023-03-02T06:14:54.961Z,-2.39
2023-03-02T06:15:57.976Z,-2.68
2023-03-02T06:16:59.596Z,-2.93
2023-03-02T06:18:02.279Z,-2.93
2023-03-02T06:19:03.759Z,-2.86
2023-03-02T06:20:10.946Z,-2.85
2023-03-02T06:21:15.282Z,-3.24
2023-03-02T06:22:17.071Z,-3.01
2023-03-02T06:23:21.225Z,-2.93
2023-03-02T06:24:22.717Z,-3.01
2023-03-02T06:25:26.150Z,-3.01
2023-03-02T06:26:27.676Z,-2.62
2023-03-02T06:27:30.220Z,-2.48
2023-03-02T06:28:37.749Z,-2.46
2023-03-02T06:29:44.618Z,-2.34
2023-03-02T06:30:49.643Z,-2.05
2023-03-02T06:31:52.370Z,-1.80
2023-03-02T06:32:55.401Z,-1.67
2023-03-02T06:33:56.971Z,-1.62
2023-03-02T06:34:59.634Z,-1.61
2023-03-02T06:36:02.367Z,-1.56
2023-03-02T06:37:05.274Z,-1.48
2023-03-02T06:38:07.767Z,-1.45
2023-03-02T06:39:15.796Z,-1.51
2023-03-02T06:40:33.003Z,-1.42
2023-03-02T06:41:39.404Z,-1.57
2023-03-02T06:42:50.396Z,-1.64
2023-03-02T06:43:53.146Z,-1.48
2023-03-02T06:44:55.137Z,-1.35
2023-03-02T06:45:58.160Z,-1.45
2023-03-02T06:46:59.751Z,-1.28
2023-03-02T06:48:02.345Z,-1.15
2023-03-02T06:49:04.352Z,-1.02
2023-03-02T06:50:07.704Z,-0.91
2023-03-02T06:51:09.527Z,-0.83
2023-03-02T06:52:14.298Z,-0.83
2023-03-02T06:53:18.547Z,-0.79
2023-03-02T06:54:23.111Z,-0.68
2023-03-02T06:55:25.879Z,-0.78
2023-03-02T06:56:28.663Z,-0.76
2023-03-02T06:57:34.156Z,-0.88
2023-03-02T06:58:37.619Z,-0.95
2023-03-02T06:59:39.245Z,-0.80
2023-03-02T07:00:41.934Z,-0.87
2023-03-02T07:01:43.499Z,-0.79
2023-03-02T07:02:46.554Z,-0.99
2023-03-02T07:03:48.189Z,-0.84
2023-03-02T07:04:51.078Z,-1.00
2023-03-02T07:05:52.637Z,-0.92
2023-03-02T07:06:55.201Z,-0.81
2023-03-02T07:07:58.047Z,-0.65
2023-03-02T07:09:00.726Z,-0.57
2023-03-02T07:10:02.484Z,-0.66
2023-03-02T07:11:08.567Z,-0.46
2023-03-02T07:12:10.135Z,-0.52
2023-03-02T07:13:12.610Z,-0.58
2023-03-02T07:14:14.173Z,-0.65
2023-03-02T07:15:25.725Z,-0.71
2023-03-02T07:16:28.841Z,-0.71
2023-03-02T07:17:30.482Z,-0.57
2023-03-02T07:18:33.009Z,-0.52
2023-03-02T07:19:34.601Z,-0.44
2023-03-02T07:20:38.206Z,-0.23
2023-03-02T07:21:40.021Z,-0.26
2023-03-02T07:22:43.194Z,-0.24
2023-03-02T07:23:46.093Z,-0.78
2023-03-02T07:24:48.596Z,-0.73
2023-03-02T07:25:50.069Z,-0.84
2023-03-02T07:26:52.561Z,-0.71
2023-03-02T07:27:55.797Z,-0.58
2023-03-02T07:28:59.475Z,-0.58
2023-03-02T07:30:01.236Z,-0.69
2023-03-02T07:31:03.867Z,-1.09
2023-03-02T07:32:06.827Z,-0.80
2023-03-02T07:33:09.530Z,-0.64
2023-03-02T07:34:11.057Z,-0.58
2023-03-02T07:35:13.728Z,-0.49
2023-03-02T07:36:15.237Z,-0.53
2023-03-02T07:37:17.757Z,-0.54
2023-03-02T07:38:19.301Z,-0.89
2023-03-02T07:39:23.181Z,-1.04
2023-03-02T07:40:24.734Z,-1.09
2023-03-02T07:41:27.167Z,-1.02
2023-03-02T07:42:28.720Z,-1.06
2023-03-02T07:43:31.150Z,-0.78
2023-03-02T07:44:32.710Z,-0.71
2023-03-02T07:45:35.228Z,-0.50
2023-03-02T07:46:38.030Z,-0.26
2023-03-02T07:47:39.757Z,-0.50
2023-03-02T07:48:42.270Z,-0.52
2023-03-02T07:49:43.837Z,-0.72
2023-03-02T07:50:46.351Z,-0.65
2023-03-02T07:51:48.077Z,-0.48
2023-03-02T07:52:50.537Z,-0.19
2023-03-02T07:53:52.049Z,-0.15
2023-03-02T07:54:55.900Z,0.17
2023-03-02T07:55:57.502Z,-0.17
2023-03-02T07:57:00.994Z,0.12
2023-03-02T07:58:03.470Z,-0.20
2023-03-02T07:59:05.946Z,-0.34
2023-03-02T08:00:09.736Z,-0.15
2023-03-02T08:01:11.489Z,-0.13
2023-03-02T08:02:16.745Z,-0.37
2023-03-02T08:03:18.521Z,-0.16
2023-03-02T08:04:21.162Z,-0.30
2023-03-02T08:05:23.629Z,-0.15
2023-03-02T08:06:25.333Z,0.18
2023-03-02T08:07:27.807Z,0.41
2023-03-02T08:08:29.337Z,0.68
2023-03-02T08:09:31.977Z,0.53
2023-03-02T08:10:35.603Z,0.51
2023-03-02T08:11:38.131Z,0.43
2023-03-02T08:12:40.058Z,0.24
2023-03-02T08:13:43.553Z,0.29
2023-03-02T08:14:46.986Z,0.47
2023-03-02T08:15:51.671Z,0.24
2023-03-02T08:16:54.168Z,0.43
2023-03-02T08:17:55.805Z,0.77
2023-03-02T08:18:59.945Z,1.03
2023-03-02T08:20:03.979Z,1.16
2023-03-02T08:21:12.717Z,0.95
2023-03-02T08:22:14.585Z,0.94
2023-03-02T08:23:17.050Z,1.13
2023-03-02T08:24:19.660Z,0.55
2023-03-02T08:25:21.173Z,0.83
2023-03-02T08:26:25.237Z,0.77
2023-03-02T08:27:26.828Z,1.13
2023-03-02T08:28:29.340Z,1.41
2023-03-02T08:29:32.003Z,1.37
2023-03-02T08:30:33.524Z,1.35
2023-03-02T08:31:36.295Z,1.10
2023-03-02T08:32:38.510Z,1.13
2023-03-02T08:33:41.220Z,1.11
2023-03-02T08:34:43.108Z,1.37
2023-03-02T08:35:46.102Z,1.50
2023-03-02T08:36:48.798Z,1.13
2023-03-02T08:37:50.326Z,0.92
2023-03-02T08:38:53.433Z,0.95
2023-03-02T08:39:54.984Z,1.07
2023-03-02T08:40:57.847Z,1.15
2023-03-02T08:42:01.941Z,1.41
2023-03-02T08:43:03.790Z,1.60
2023-03-02T08:44:07.486Z,1.78
2023-03-02T08:45:10.068Z,1.82
2023-03-02T08:46:14.184Z,1.88
2023-03-02T08:47:16.303Z,2.03
2023-03-02T08:48:20.639Z,1.83
2023-03-02T08:49:24.015Z,1.69
2023-03-02T08:51:45.700Z,1.64
2023-03-02T08:52:48.433Z,1.68
2023-03-02T08:53:55.505Z,1.60
2023-03-02T08:54:58.183Z,1.64
2023-03-02T08:55:59.710Z,1.67
2023-03-02T08:57:03.694Z,1.94
2023-03-02T08:58:05.211Z,1.94
2023-03-02T08:59:12.427Z,2.01
2023-03-02T09:00:16.371Z,1.95
2023-03-02T09:01:21.051Z,2.09
2023-03-02T09:02:22.626Z,2.34
2023-03-02T09:03:25.091Z,2.11
2023-03-02T09:04:26.778Z,2.10
2023-03-02T09:05:29.291Z,2.27
2023-03-02T09:06:34.274Z,1.93
2023-03-02T09:07:36.815Z,2.04
2023-03-02T09:08:38.937Z,2.07
2023-03-02T09:09:41.487Z,2.25
2023-03-02T09:10:43.074Z,2.39
2023-03-02T09:11:46.411Z,2.53
2023-03-02T09:12:49.260Z,2.42
2023-03-02T09:13:51.914Z,2.65
2023-03-02T09:14:53.375Z,2.71
2023-03-02T09:15:55.890Z,2.68
2023-03-02T09:16:58.562Z,2.95
2023-03-02T09:18:00.145Z,2.81
2023-03-02T09:19:02.675Z,2.89
2023-03-02T09:20:05.122Z,2.81
2023-03-02T09:21:07.844Z,2.80
2023-03-02T09:22:10.451Z,2.99
2023-03-02T09:23:13.585Z,3.08
2023-03-02T09:24:16.120Z,3.45
2023-03-02T09:25:18.703Z,3.34
2023-03-02T09:26:21.324Z,3.31
2023-03-02T09:27:23.876Z,3.32
2023-03-02T09:28:28.036Z,3.03
2023-03-02T09:29:33.015Z,2.98
2023-03-02T09:30:34.603Z,3.13
2023-03-02T09:31:38.125Z,3.04
2023-03-02T09:32:41.302Z,2.97
2023-03-02T09:33:42.948Z,3.05
2023-03-02T09:34:45.410Z,2.95
2023-03-02T09:35:47.708Z,3.12
2023-03-02T09:36:50.237Z,3.38
2023-03-02T09:37:51.802Z,3.31
2023-03-02T09:38:54.983Z,3.30
2023-03-02T09:39:56.729Z,3.40
2023-03-02T09:41:18.325Z,3.67
2023-03-02T09:42:44.511Z,3.91
2023-03-02T09:43:55.786Z,3.82
2023-03-02T09:45:08.912Z,4.00
2023-03-02T09:46:18.854Z,4.34
2023-03-02T09:47:35.424Z,4.32
2023-03-02T09:48:44.445Z,4.35
2023-03-02T09:49:59.053Z,4.60
2023-03-02T09:51:16.815Z,4.77
2023-03-02T09:52:31.200Z,4.65
2023-03-02T09:53:44.894Z,4.72
2023-03-02T09:54:47.536Z,4.68
2023-03-02T09:55:53.918Z,4.82
2023-03-02T09:56:58.675Z,4.75
2023-03-02T09:58:02.457Z,4.78
2023-03-02T09:59:13.765Z,4.87
2023-03-02T10:00:24.685Z,4.97
2023-03-02T10:01:36.997Z,5.15
2023-03-02T10:02:46.666Z,4.91
2023-03-02T10:03:56.294Z,4.98
2023-03-02T10:05:02.124Z,5.00
2023-03-02T10:06:04.995Z,5.21
2023-03-02T10:07:12.879Z,5.34
2023-03-02T10:08:18.102Z,5.52
2023-03-02T10:09:20.631Z,5.53
2023-03-02T10:10:27.415Z,5.36
2023-03-02T10:11:37.220Z,5.61
2023-03-02T10:12:54.713Z,5.58
2023-03-02T10:14:03.311Z,5.68
2023-03-02T10:15:13.515Z,5.72
2023-03-02T10:16:25.394Z,5.97
2023-03-02T10:17:41.053Z,6.29
2023-03-02T10:18:47.770Z,6.17
2023-03-02T10:19:57.536Z,5.97
2023-03-02T10:21:05.220Z,6.10
2023-03-02T10:22:16.357Z,6.10
2023-03-02T10:23:40.033Z,6.32
2023-03-02T10:24:52.150Z,6.40
2023-03-02T10:26:02.178Z,6.60
2023-03-02T10:27:17.898Z,6.71
2023-03-02T10:28:22.083Z,6.71
2023-03-02T10:29:41.666Z,7.05
2023-03-02T10:30:49.968Z,7.29
2023-03-02T10:31:59.865Z,7.49
2023-03-02T10:33:05.636Z,7.50
2023-03-02T10:34:11.444Z,7.41
2023-03-02T10:35:17.542Z,8.02
2023-03-02T10:36:23.478Z,8.64
2023-03-02T10:37:30.518Z,8.89
2023-03-02T10:38:33.367Z,9.98
2023-03-02T10:39:35.958Z,10.85
2023-03-02T10:40:44.211Z,12.00
2023-03-02T10:41:51.506Z,12.07
2023-03-02T10:42:54.566Z,11.87
2023-03-02T10:44:02.114Z,11.83
2023-03-02T10:45:16.235Z,13.24
2023-03-02T10:46:21.151Z,13.84
2023-03-02T10:47:26.258Z,13.21
2023-03-02T10:48:28.246Z,14.09
2023-03-02T10:49:32.454Z,15.11
2023-03-02T10:50:34.111Z,15.79
2023-03-02T10:51:37.689Z,16.61
2023-03-02T10:52:59.798Z,15.24
2023-03-02T10:54:10.231Z,14.72
2023-03-02T10:55:15.756Z,14.66
2023-03-02T10:56:20.389Z,14.57
2023-03-02T10:57:35.414Z,16.03
2023-03-02T10:58:37.932Z,17.31
2023-03-02T10:59:43.823Z,16.48
2023-03-02T11:00:57.454Z,17.82
2023-03-02T11:02:01.038Z,17.63
2023-03-02T11:03:06.636Z,16.30
2023-03-02T11:04:15.684Z,15.74
2023-03-02T11:05:29.165Z,15.46
2023-03-02T11:06:31.142Z,15.87
2023-03-02T11:07:33.826Z,16.97
2023-03-02T11:08:36.955Z,16.28
2023-03-02T11:09:38.969Z,16.97
2023-03-02T11:10:51.419Z,17.66
2023-03-02T11:11:56.661Z,18.31
2023-03-02T11:13:00.704Z,17.03
2023-03-02T11:14:10.285Z,18.29
2023-03-02T11:15:21.701Z,20.05
2023-03-02T11:16:28.754Z,18.10
2023-03-02T11:17:34.325Z,18.98
2023-03-02T11:18:39.642Z,18.52
2023-03-02T11:19:42.576Z,19.65
2023-03-02T11:20:49.369Z,19.14
2023-03-02T11:21:58.934Z,18.81
2023-03-02T11:23:17.873Z,19.43
2023-03-02T11:24:25.142Z,19.22
2023-03-02T11:25:32.534Z,19.49
2023-03-02T11:26:38.580Z,19.60
2023-03-02T11:27:44.579Z,19.08
2023-03-02T11:28:52.750Z,18.93
2023-03-02T11:29:58.527Z,20.17
2023-03-02T11:31:04.037Z,20.36
2023-03-02T11:32:19.294Z,19.64
2023-03-02T11:33:29.727Z,19.26
2023-03-02T11:34:36.221Z,16.57
2023-03-02T11:35:45.993Z,15.72
2023-03-02T11:36:59.337Z,15.50
2023-03-02T11:38:11.526Z,14.58
2023-03-02T11:39:21.754Z,16.25
2023-03-02T11:40:28.751Z,18.04
2023-03-02T11:41:32.967Z,19.05
2023-03-02T11:42:38.318Z,19.38
2023-03-02T11:43:39.955Z,18.14
2023-03-02T11:44:43.121Z,18.49
2023-03-02T11:45:47.379Z,19.91
2023-03-02T11:46:56.764Z,19.94
2023-03-02T11:48:03.960Z,19.59
2023-03-02T11:49:15.870Z,18.85
2023-03-02T11:50:20.663Z,17.99
2023-03-02T11:51:26.444Z,17.68
2023-03-02T11:52:32.966Z,18.04
2023-03-02T11:53:43.544Z,16.78
2023-03-02T11:54:53.787Z,16.51
2023-03-02T11:55:56.576Z,17.35
2023-03-02T11:56:58.957Z,17.74
2023-03-02T11:58:04.349Z,18.51
2023-03-02T11:59:16.704Z,18.33
2023-03-02T12:00:28.851Z,18.64
2023-03-02T12:01:34.191Z,18.79
2023-03-02T12:02:37.436Z,19.77
2023-03-02T12:04:27.161Z,18.75
2023-03-02T12:05:36.116Z,19.44
2023-03-02T12:06:41.214Z,19.69
2023-03-02T12:07:44.582Z,19.79
2023-03-02T12:08:48.980Z,20.51
2023-03-02T12:09:59.617Z,21.68
2023-03-02T12:11:04.979Z,19.95
2023-03-02T12:12:41.238Z,19.71
2023-03-02T12:13:45.370Z,19.69
2023-03-02T12:14:47.182Z,17.94
2023-03-02T12:15:51.322Z,18.64
2023-03-02T12:17:05.226Z,20.78
2023-03-02T12:18:29.741Z,20.20
2023-03-02T12:19:42.017Z,19.45
2023-03-02T12:20:45.846Z,19.41
2023-03-02T12:21:57.964Z,20.01
2023-03-02T12:23:21.195Z,19.19
2023-03-02T12:24:26.997Z,18.74
2023-03-02T12:25:39.731Z,18.65
2023-03-02T12:26:42.307Z,20.00
2023-03-02T12:27:43.934Z,18.72
2023-03-02T12:28:59.590Z,19.36
2023-03-02T12:30:24.555Z,19.89
2023-03-02T12:31:27.820Z,20.49
2023-03-02T12:32:31.716Z,19.47
2023-03-02T12:33:42.491Z,19.07
2023-03-02T12:34:46.914Z,19.82
2023-03-02T12:35:52.990Z,20.30
2023-03-02T12:36:59.597Z,19.49
2023-03-02T12:38:06.375Z,19.34
2023-03-02T12:39:23.206Z,20.01
2023-03-02T12:40:33.560Z,20.98
2023-03-02T12:41:54.559Z,21.70
2023-03-02T12:43:24.533Z,21.11
2023-03-02T12:44:44.042Z,21.95
2023-03-02T12:46:25.039Z,23.98
2023-03-02T12:47:30.673Z,22.95
2023-03-02T12:48:42.181Z,22.93
2023-03-02T12:49:54.530Z,23.37
2023-03-02T12:51:00.629Z,22.61
2023-03-02T12:52:05.246Z,23.64
2023-03-02T12:53:16.874Z,23.53
2023-03-02T12:54:21.560Z,24.37
2023-03-02T12:55:24.808Z,21.96
2023-03-02T12:56:27.528Z,20.46
2023-03-02T12:57:29.682Z,20.69
2023-03-02T12:58:33.705Z,21.16
2023-03-02T12:59:37.245Z,20.15
2023-03-02T13:00:39.717Z,20.40
2023-03-02T13:01:41.247Z,20.28
2023-03-02T13:02:49.113Z,21.81
2023-03-02T13:03:52.113Z,20.48
2023-03-02T13:04:57.437Z,19.73
2023-03-02T13:06:12.198Z,21.09
2023-03-02T13:07:19.166Z,21.43
2023-03-02T13:08:25.387Z,21.09
2023-03-02T13:09:27.479Z,19.95
2023-03-02T13:10:36.060Z,19.00
2023-03-02T13:11:38.687Z,19.43
2023-03-02T13:12:46.656Z,19.47
2023-03-02T13:13:48.662Z,19.08
2023-03-02T13:14:56.094Z,20.26
2023-03-02T13:16:00.519Z,18.90
2023-03-02T13:17:03.225Z,19.65
2023-03-02T13:18:05.946Z,19.75
2023-03-02T13:19:16.550Z,20.87
2023-03-02T13:20:21.361Z,20.78
2023-03-02T13:21:31.427Z,21.51
2023-03-02T13:22:34.152Z,22.31
2023-03-02T13:23:35.797Z,21.09
2023-03-02T13:24:46.908Z,21.95
2023-03-02T13:25:50.458Z,21.64
2023-03-02T13:26:56.453Z,22.06
2023-03-02T13:28:04.744Z,21.51
2023-03-02T13:29:19.198Z,21.07
2023-03-02T13:30:27.978Z,20.51
2023-03-02T13:31:30.397Z,20.92
2023-03-02T13:32:38.838Z,20.51
2023-03-02T13:33:45.027Z,21.22
2023-03-02T13:34:50.087Z,21.18
2023-03-02T13:35:52.950Z,21.21
2023-03-02T13:36:56.023Z,21.11
2023-03-02T13:38:03.232Z,20.34
2023-03-02T13:39:09.196Z,21.93
2023-03-02T13:40:39.696Z,20.92
2023-03-02T13:41:54.286Z,21.25
2023-03-02T13:42:56.246Z,21.84
2023-03-02T13:43:59.928Z,21.82
2023-03-02T13:45:14.891Z,20.85
2023-03-02T13:46:36.657Z,19.18
2023-03-02T13:47:43.673Z,20.53
2023-03-02T13:49:07.544Z,20.13
2023-03-02T13:50:19.345Z,19.86
2023-03-02T13:51:24.087Z,19.01
2023-03-02T13:52:30.640Z,19.93
2023-03-02T13:53:37.906Z,19.96
2023-03-02T13:54:42.494Z,19.33
2023-03-02T13:55:45.061Z,20.32
2023-03-02T13:56:47.684Z,20.33
2023-03-02T13:57:51.968Z,20.71
2023-03-02T13:58:53.842Z,21.98
2023-03-02T13:59:56.954Z,21.27
2023-03-02T14:00:58.574Z,20.82
2023-03-02T14:02:01.238Z,20.49
2023-03-02T14:03:02.818Z,21.17
2023-03-02T14:04:05.292Z,20.96
2023-03-02T14:05:09.919Z,21.29
2023-03-02T14:06:12.415Z,22.21
2023-03-02T14:07:14.873Z,21.75
2023-03-02T14:08:17.722Z,22.74
2023-03-02T14:09:20.496Z,21.02